WetterOnline ( https://www.wetteronline.de )

Wetter aktuell Maasdorf

Aktuelles Wetter: Kirchhain (100m)

6-stündlich | Neueste Meldungen
Ortszeit Temperatur Wetter
Fr, 25.09. 8:00 13.2° C leichter Regen
Fr, 25.09. 2:00 11.9° C bedeckt
Do, 24.09. 20:00 17.9° C wolkig
Do, 24.09. 14:00 22.4° C wolkig
Do, 24.09. 8:00 13.9° C wolkig
Do, 24.09. 2:00 15.9° C leicht bewölkt
Mi, 23.09. 20:00 19.2° C bedeckt
Mi, 23.09. 14:00 26.6° C wolkenlos
Ortszeit Temperatur Wetter
Fr, 25.09. 10:00 13.5° C leichter Regen
Fr, 25.09. 9:50 13.5° C leichter Regen
Fr, 25.09. 9:40 13.4° C leichter Regen
Fr, 25.09. 9:30 13.3° C leichter Regen
Fr, 25.09. 9:20 13.3° C leichter Regen
Fr, 25.09. 9:10 13.3° C leichter Regen
Fr, 25.09. 9:00 13.3° C leichter Regen
Fr, 25.09. 8:30 13.2° C leichter Regen
Fr, 25.09. 8:00 13.2° C leichter Regen
Fr, 25.09. 7:30 13.3° C leichter Regen
Fr, 25.09. 7:00 13.4° C bedeckt
Ortszeit Relative Feuchte Sichtweite
Fr, 25.09. 8:00 97% 7 km
Fr, 25.09. 2:00 89% 55 km
Do, 24.09. 20:00 53% 40 km
Do, 24.09. 14:00 52% 50 km
Do, 24.09. 8:00 84% 40 km
Do, 24.09. 2:00 82% 30 km
Mi, 23.09. 20:00 76% 45 km
Mi, 23.09. 14:00 45% 35 km
Ortszeit Relative Feuchte Sichtweite
Fr, 25.09. 10:00 97% 13 km
Fr, 25.09. 9:50 97% -
Fr, 25.09. 9:40 96% -
Fr, 25.09. 9:30 97% 7 km
Fr, 25.09. 9:20 97% -
Fr, 25.09. 9:10 97% -
Fr, 25.09. 9:00 96% 8 km
Fr, 25.09. 8:30 96% 8 km
Fr, 25.09. 8:00 97% 7 km
Fr, 25.09. 7:30 96% 7 km
Fr, 25.09. 7:00 96% 21 km
Ortszeit Niederschlagsmenge Niederschlagsart
Fr, 25.09. 8:00 4 l/m2 in 12 Std. Regen
Fr, 25.09. 2:00 0.0 l/m2 in 6 Std. -
Do, 24.09. 20:00 0.0 l/m2 in 12 Std. -
Do, 24.09. 14:00 0.0 l/m2 in 6 Std. -
Do, 24.09. 8:00 0.0 l/m2 in 12 Std. -
Do, 24.09. 2:00 0.0 l/m2 in 6 Std. -
Mi, 23.09. 20:00 0.1 l/m2 in 12 Std. Regen
Mi, 23.09. 14:00 0.0 l/m2 in 6 Std. -
Ortszeit Niederschlagsmenge Niederschlagsart
Fr, 25.09. 10:00 1.3 l/m2 in 1 Std. Regen
Fr, 25.09. 9:50 keine Meldung -
Fr, 25.09. 9:40 keine Meldung -
Fr, 25.09. 9:30 0.8 l/m2 in 1 Std. -
Fr, 25.09. 9:20 keine Meldung -
Fr, 25.09. 9:10 keine Meldung -
Fr, 25.09. 9:00 1.0 l/m2 in 1 Std. Regen
Fr, 25.09. 8:30 0.6 l/m2 in 1 Std. -
Fr, 25.09. 8:00 2.1 l/m2 in 1 Std. Regen
Fr, 25.09. 7:30 0.5 l/m2 in 1 Std. -
Fr, 25.09. 7:00 0.1 l/m2 in 1 Std. -
Ortszeit Stärke Spitze Richtung
km/h Bft. km/h Grad Sektor
Fr, 25.09. 8:00 7 2 25 250° W
Fr, 25.09. 2:00 0 0 14 - -
Do, 24.09. 20:00 9 2 30 200° S
Do, 24.09. 14:00 15 3 41 260° W
Do, 24.09. 8:00 9 2 17 170° S
Do, 24.09. 2:00 11 2 18 200° S
Mi, 23.09. 20:00 7 2 33 160° S
Mi, 23.09. 14:00 6 1 15 220° SW
Ortszeit Stärke Spitze Richtung
km/h Bft. km/h Grad Sektor
Fr, 25.09. 10:00 6 1 9 220° SW
Fr, 25.09. 9:50 6 1 - 220° SW
Fr, 25.09. 9:40 6 1 - 230° SW
Fr, 25.09. 9:30 6 1 9 220° SW
Fr, 25.09. 9:20 6 1 - 220° SW
Fr, 25.09. 9:10 7 2 - 230° SW
Fr, 25.09. 9:00 6 1 7 240° SW
Fr, 25.09. 8:30 4 1 7 200° S
Fr, 25.09. 8:00 7 2 18 250° W
Fr, 25.09. 7:30 4 1 18 330° NW
Fr, 25.09. 7:00 11 2 14 220° SW
Ortszeit Untergrenze Bedeckung Gattung
total tief tief mittel hoch
Fr, 25.09. 8:00 60 m 8/8 8/8 - - -
Fr, 25.09. 2:00 2400 m 8/8 8/8 - - -
Do, 24.09. 20:00 3300 m 8/8 2/8 - - -
Do, 24.09. 14:00 1500 m 8/8 2/8 - - -
Do, 24.09. 8:00 7500 m 8/8 0/8 - - -
Do, 24.09. 2:00 10500 m 5/8 0/8 - - -
Mi, 23.09. 20:00 3300 m 8/8 8/8 - - -
Mi, 23.09. 14:00 - 0/8 0/8 - - -
Ortszeit Bedeckungsgrad in Achtel und Wolkenuntergrenze
Fr, 25.09. 10:00 5(60m) 7(2100m) 7(2700m)
Fr, 25.09. 9:50 5(60m) 7(2100m) 7(2700m)
Fr, 25.09. 9:40 3(60m) 7(2100m) 7(2400m)
Fr, 25.09. 9:30 2(90m) 7(2100m)
Fr, 25.09. 9:20 2(90m) 2(1800m) 7(2100m)
Fr, 25.09. 9:10 4(90m) 7(2100m)
Fr, 25.09. 9:00 7(120m) 8(2400m)
Fr, 25.09. 8:30 5(150m) 8(2400m)
Fr, 25.09. 8:00 2(60m) 5(2100m) 8(2400m)
Fr, 25.09. 7:30 1(90m) 7(1800m) 8(2100m)
Fr, 25.09. 7:00 7(660m) 8(1320m)
Ortszeit Luftdruck NN (hPa) Tendenz (hPa in 3 Std.)
Fr, 25.09. 8:00 998 - 1,3
Fr, 25.09. 2:00 1001 - 2,8
Do, 24.09. 20:00 1005 - 0,3
Do, 24.09. 14:00 1005 + 0,5
Do, 24.09. 8:00 1004 - 0,2
Do, 24.09. 2:00 1005 - 0,1
Mi, 23.09. 20:00 1005 0,0
Mi, 23.09. 14:00 1005 - 0,9
Ortszeit Luftdruck NN (hPa) Tendenz (hPa in 3 Std.)
Fr, 25.09. 10:00 997 - 0,5
Fr, 25.09. 9:50 997 keine Meldung
Fr, 25.09. 9:40 997 keine Meldung
Fr, 25.09. 9:30 997 - 0,4
Fr, 25.09. 9:20 997 keine Meldung
Fr, 25.09. 9:10 997 keine Meldung
Fr, 25.09. 9:00 997 - 0,5
Fr, 25.09. 8:30 997 - 1,0
Fr, 25.09. 8:00 998 - 1,3
Fr, 25.09. 7:30 998 - 1,7
Fr, 25.09. 7:00 998 - 1,5
Ortszeit Schneehöhe (cm)
Fr, 25.09. 8:00 -
Fr, 25.09. 2:00 -
Do, 24.09. 20:00 -
Do, 24.09. 14:00 -
Do, 24.09. 8:00 -
Do, 24.09. 2:00 -
Mi, 23.09. 20:00 -
Mi, 23.09. 14:00 -
Ortszeit Schneehöhe (cm)
Fr, 25.09. 10:00 -
Fr, 25.09. 9:50 -
Fr, 25.09. 9:40 -
Fr, 25.09. 9:30 -
Fr, 25.09. 9:20 -
Fr, 25.09. 9:10 -
Fr, 25.09. 9:00 -
Fr, 25.09. 8:30 -
Fr, 25.09. 8:00 -
Fr, 25.09. 7:30 -
Fr, 25.09. 7:00 -
Link zu dieser Seite / Seite empfehlen

Das Wetter in ...